createdAt,value
2018-02-09T00:00:44.610Z,-3.22
2018-02-09T00:01:47.115Z,-3.31
2018-02-09T00:02:49.602Z,-3.43
2018-02-09T00:03:52.079Z,-3.52
2018-02-09T00:04:54.555Z,-3.47
2018-02-09T00:05:57.027Z,-3.54
2018-02-09T00:06:59.506Z,-3.54
2018-02-09T00:08:02.001Z,-3.50
2018-02-09T00:09:04.485Z,-3.47
2018-02-09T00:10:06.959Z,-3.41
2018-02-09T00:11:09.437Z,-3.41
2018-02-09T00:12:11.932Z,-3.42
2018-02-09T00:13:14.406Z,-3.45
2018-02-09T00:14:16.915Z,-3.46
2018-02-09T00:15:19.406Z,-3.59
2018-02-09T00:16:21.895Z,-3.45
2018-02-09T00:17:24.381Z,-3.44
2018-02-09T00:18:26.870Z,-3.49
2018-02-09T00:19:29.366Z,-3.31
2018-02-09T00:20:31.841Z,-3.29
2018-02-09T00:21:34.324Z,-3.32
2018-02-09T00:22:48.722Z,-3.36
2018-02-09T00:23:51.233Z,-3.19
2018-02-09T00:24:53.703Z,-3.25
2018-02-09T00:25:56.202Z,-3.27
2018-02-09T00:26:58.683Z,-3.43
2018-02-09T00:28:01.168Z,-3.32
2018-02-09T00:29:03.675Z,-3.46
2018-02-09T00:30:06.165Z,-3.58
2018-02-09T00:31:08.661Z,-3.36
2018-02-09T00:32:11.130Z,-3.29
2018-02-09T00:33:13.641Z,-3.27
2018-02-09T00:34:16.152Z,-3.36
2018-02-09T00:35:18.627Z,-3.52
2018-02-09T00:36:21.112Z,-3.41
2018-02-09T00:37:23.609Z,-3.45
2018-02-09T00:38:26.090Z,-3.34
2018-02-09T00:39:28.590Z,-3.49
2018-02-09T00:40:31.081Z,-3.42
2018-02-09T00:41:33.564Z,-3.37
2018-02-09T00:42:36.038Z,-3.45
2018-02-09T00:43:38.537Z,-3.44
2018-02-09T00:44:41.048Z,-3.43
2018-02-09T00:45:43.536Z,-3.57
2018-02-09T00:46:46.013Z,-3.66
2018-02-09T00:47:48.509Z,-3.60
2018-02-09T00:48:50.985Z,-3.73
2018-02-09T00:49:53.494Z,-3.43
2018-02-09T00:50:55.966Z,-3.52
2018-02-09T00:51:58.455Z,-3.70
2018-02-09T00:53:00.944Z,-3.51
2018-02-09T00:54:03.451Z,-3.66
2018-02-09T00:55:05.942Z,-3.74
2018-02-09T00:56:08.442Z,-3.57
2018-02-09T00:57:10.914Z,-3.48
2018-02-09T00:58:13.398Z,-3.68
2018-02-09T00:59:15.871Z,-3.77
2018-02-09T01:00:18.512Z,-3.76
2018-02-09T01:01:20.994Z,-3.52
2018-02-09T01:02:23.486Z,-3.62
2018-02-09T01:03:25.978Z,-3.69
2018-02-09T01:04:28.462Z,-3.40
2018-02-09T01:05:30.962Z,-3.36
2018-02-09T01:06:33.451Z,-3.09
2018-02-09T01:07:35.927Z,-3.14
2018-02-09T01:08:38.448Z,-3.29
2018-02-09T01:09:40.918Z,-3.33
2018-02-09T01:10:43.410Z,-3.37
2018-02-09T01:11:45.906Z,-3.38
2018-02-09T01:12:48.403Z,-3.48
2018-02-09T01:13:50.894Z,-3.51
2018-02-09T01:14:53.383Z,-3.35
2018-02-09T01:15:55.896Z,-3.29
2018-02-09T01:16:58.385Z,-3.31
2018-02-09T01:18:00.861Z,-3.40
2018-02-09T01:20:05.119Z,-3.64
2018-02-09T01:21:07.671Z,-3.79
2018-02-09T01:22:10.166Z,-3.79
2018-02-09T01:23:12.664Z,-3.76
2018-02-09T01:24:15.157Z,-3.75
2018-02-09T01:25:17.657Z,-3.80
2018-02-09T01:26:20.146Z,-3.81
2018-02-09T01:27:22.625Z,-3.90
2018-02-09T01:28:25.121Z,-3.64
2018-02-09T01:29:27.595Z,-3.64
2018-02-09T01:30:30.072Z,-3.74
2018-02-09T01:31:32.570Z,-3.44
2018-02-09T01:32:35.053Z,-3.59
2018-02-09T01:33:37.544Z,-3.80
2018-02-09T01:34:40.037Z,-3.67
2018-02-09T01:35:42.511Z,-3.77
2018-02-09T01:36:45.019Z,-3.80
2018-02-09T01:37:47.508Z,-3.73
2018-02-09T01:38:49.998Z,-3.67
2018-02-09T01:39:52.489Z,-3.56
2018-02-09T01:40:55.026Z,-3.41
2018-02-09T01:41:57.530Z,-3.53
2018-02-09T01:43:00.007Z,-3.58
2018-02-09T01:44:02.677Z,-3.45
2018-02-09T01:45:05.176Z,-3.56
2018-02-09T01:46:07.665Z,-3.58
2018-02-09T01:47:10.173Z,-3.61
2018-02-09T01:48:12.647Z,-3.45
2018-02-09T01:49:15.137Z,-3.41
2018-02-09T01:50:17.614Z,-3.42
2018-02-09T01:51:20.105Z,-3.23
2018-02-09T01:52:22.621Z,-3.14
2018-02-09T01:53:25.112Z,-3.25
2018-02-09T01:54:27.588Z,-3.17
2018-02-09T01:55:30.077Z,-3.15
2018-02-09T01:56:32.570Z,-3.33
2018-02-09T01:57:35.071Z,-3.28
2018-02-09T01:58:37.538Z,-3.26
2018-02-09T01:59:40.025Z,-3.36
2018-02-09T02:00:42.504Z,-3.40
2018-02-09T02:01:44.997Z,-3.45
2018-02-09T02:02:47.516Z,-3.58
2018-02-09T02:03:49.987Z,-3.66
2018-02-09T02:04:52.463Z,-3.65
2018-02-09T02:05:54.938Z,-3.60
2018-02-09T02:06:57.414Z,-3.61
2018-02-09T02:07:59.933Z,-3.72
2018-02-09T02:09:02.411Z,-3.80
2018-02-09T02:10:04.906Z,-3.56
2018-02-09T02:11:07.397Z,-3.63
2018-02-09T02:12:09.897Z,-3.61
2018-02-09T02:13:12.405Z,-3.55
2018-02-09T02:14:14.901Z,-3.45
2018-02-09T02:15:17.379Z,-3.39
2018-02-09T02:16:19.865Z,-3.55
2018-02-09T02:17:22.354Z,-3.44
2018-02-09T02:18:24.860Z,-3.37
2018-02-09T02:19:27.353Z,-3.30
2018-02-09T02:20:29.829Z,-3.40
2018-02-09T02:21:32.312Z,-3.25
2018-02-09T02:22:34.826Z,-3.27
2018-02-09T02:23:37.361Z,-3.35
2018-02-09T02:24:39.849Z,-3.47
2018-02-09T02:25:42.341Z,-3.49
2018-02-09T02:26:44.834Z,-3.43
2018-02-09T02:27:47.311Z,-3.41
2018-02-09T02:28:49.802Z,-3.41
2018-02-09T02:29:52.277Z,-3.35
2018-02-09T02:30:54.765Z,-3.35
2018-02-09T02:31:57.252Z,-3.47
2018-02-09T02:34:01.528Z,-3.55
2018-02-09T02:35:04.017Z,-3.51
2018-02-09T02:36:06.494Z,-3.38
2018-02-09T02:37:08.989Z,-3.32
2018-02-09T02:38:11.477Z,-3.35
2018-02-09T02:39:14.005Z,-3.28
2018-02-09T02:40:16.501Z,-3.11
2018-02-09T02:41:18.993Z,-3.24
2018-02-09T02:42:21.489Z,-3.23
2018-02-09T02:43:23.978Z,-3.12
2018-02-09T02:44:26.472Z,-3.25
2018-02-09T02:45:28.951Z,-3.33
2018-02-09T02:46:31.454Z,-3.44
2018-02-09T02:47:33.946Z,-3.37
2018-02-09T02:48:36.442Z,-3.49
2018-02-09T02:49:38.947Z,-3.40
2018-02-09T02:50:41.488Z,-3.10
2018-02-09T02:51:43.975Z,-3.28
2018-02-09T02:52:46.464Z,-3.22
2018-02-09T02:53:48.979Z,-3.03
2018-02-09T02:54:51.470Z,-2.89
2018-02-09T02:55:53.987Z,-2.95
2018-02-09T02:56:56.462Z,-2.99
2018-02-09T02:57:58.973Z,-3.07
2018-02-09T02:59:01.470Z,-3.22
2018-02-09T03:00:03.970Z,-3.24
2018-02-09T03:01:06.460Z,-3.36
2018-02-09T03:02:08.977Z,-3.36
2018-02-09T03:03:11.468Z,-3.49
2018-02-09T03:04:13.963Z,-3.61
2018-02-09T03:05:16.478Z,-3.54
2018-02-09T03:06:18.960Z,-3.50
2018-02-09T03:07:21.452Z,-3.33
2018-02-09T03:08:23.934Z,-3.19
2018-02-09T03:09:26.407Z,-3.18
2018-02-09T03:10:28.957Z,-3.32
2018-02-09T03:11:31.430Z,-3.50
2018-02-09T03:12:33.925Z,-3.61
2018-02-09T03:13:36.421Z,-3.57
2018-02-09T03:14:38.898Z,-3.46
2018-02-09T03:15:41.401Z,-3.35
2018-02-09T03:16:43.912Z,-3.20
2018-02-09T03:17:46.391Z,-3.20
2018-02-09T03:18:48.893Z,-3.31
2018-02-09T03:19:51.386Z,-3.50
2018-02-09T03:20:53.905Z,-3.46
2018-02-09T03:21:56.407Z,-3.55
2018-02-09T03:22:58.887Z,-3.30
2018-02-09T03:24:01.386Z,-3.33
2018-02-09T03:25:03.875Z,-3.42
2018-02-09T03:26:06.406Z,-3.55
2018-02-09T03:27:08.897Z,-3.55
2018-02-09T03:28:11.393Z,-3.37
2018-02-09T03:29:13.896Z,-3.55
2018-02-09T03:30:16.445Z,-3.45
2018-02-09T03:31:18.965Z,-3.61
2018-02-09T03:32:21.458Z,-3.53
2018-02-09T03:33:23.953Z,-3.59
2018-02-09T03:34:26.435Z,-3.66
2018-02-09T03:35:28.906Z,-3.67
2018-02-09T03:36:31.428Z,-3.53
2018-02-09T03:37:33.917Z,-3.46
2018-02-09T03:38:36.411Z,-3.52
2018-02-09T03:39:38.900Z,-3.44
2018-02-09T03:40:41.412Z,-3.39
2018-02-09T03:41:43.925Z,-3.36
2018-02-09T03:42:46.440Z,-3.29
2018-02-09T03:43:48.928Z,-3.46
2018-02-09T03:44:51.415Z,-3.47
2018-02-09T03:45:53.894Z,-3.56
2018-02-09T03:46:56.414Z,-3.48
2018-02-09T03:47:58.936Z,-3.41
2018-02-09T03:49:01.417Z,-3.45
2018-02-09T03:50:03.899Z,-3.65
2018-02-09T03:51:06.387Z,-3.69
2018-02-09T03:52:08.901Z,-3.68
2018-02-09T03:53:11.375Z,-3.65
2018-02-09T03:54:13.865Z,-3.54
2018-02-09T03:55:16.357Z,-3.70
2018-02-09T03:56:18.846Z,-3.88
2018-02-09T03:57:21.351Z,-3.92
2018-02-09T03:58:23.831Z,-3.78
2018-02-09T03:59:26.308Z,-3.80
2018-02-09T04:00:28.801Z,-3.98
2018-02-09T04:01:31.286Z,-4.15
2018-02-09T04:02:33.787Z,-4.06
2018-02-09T04:03:36.263Z,-3.81
2018-02-09T04:04:38.757Z,-3.93
2018-02-09T04:05:41.238Z,-3.89
2018-02-09T04:06:43.724Z,-3.72
2018-02-09T04:07:46.232Z,-3.56
2018-02-09T04:08:48.720Z,-3.62
2018-02-09T04:09:51.220Z,-3.86
2018-02-09T04:10:53.720Z,-4.03
2018-02-09T04:11:56.217Z,-3.94
2018-02-09T04:12:58.731Z,-3.92
2018-02-09T04:14:01.239Z,-3.78
2018-02-09T04:15:03.706Z,-3.70
2018-02-09T04:16:06.186Z,-3.54
2018-02-09T04:17:08.676Z,-3.70
2018-02-09T04:18:11.174Z,-3.76
2018-02-09T04:19:13.662Z,-3.79
2018-02-09T04:20:16.148Z,-3.82
2018-02-09T04:21:18.634Z,-3.95
2018-02-09T04:22:21.129Z,-3.88
2018-02-09T04:23:23.628Z,-3.79
2018-02-09T04:24:26.124Z,-3.78
2018-02-09T04:25:28.599Z,-3.71
2018-02-09T04:26:31.090Z,-3.89
2018-02-09T04:27:33.561Z,-3.85
2018-02-09T04:28:36.084Z,-3.74
2018-02-09T04:29:38.573Z,-3.81
2018-02-09T04:30:41.057Z,-3.97
2018-02-09T04:31:43.535Z,-3.97
2018-02-09T04:32:46.006Z,-3.79
2018-02-09T04:33:48.522Z,-3.60
2018-02-09T04:34:50.994Z,-3.45
2018-02-09T04:35:53.473Z,-3.58
2018-02-09T04:36:55.965Z,-3.63
2018-02-09T04:37:58.448Z,-3.85
2018-02-09T04:39:00.988Z,-3.87
2018-02-09T04:40:03.485Z,-3.77
2018-02-09T04:41:05.973Z,-3.76
2018-02-09T04:42:08.462Z,-3.78
2018-02-09T04:43:11.066Z,-3.76
2018-02-09T04:44:13.554Z,-3.72
2018-02-09T04:45:16.044Z,-3.91
2018-02-09T04:46:18.519Z,-3.86
2018-02-09T04:47:20.998Z,-3.89
2018-02-09T04:48:23.474Z,-3.71
2018-02-09T04:49:25.984Z,-3.71
2018-02-09T04:50:28.477Z,-3.64
2018-02-09T04:51:30.980Z,-3.73
2018-02-09T04:52:33.468Z,-3.98
2018-02-09T04:53:35.961Z,-3.83
2018-02-09T04:54:38.485Z,-3.77
2018-02-09T04:55:40.979Z,-3.85
2018-02-09T04:56:43.467Z,-3.62
2018-02-09T04:57:45.959Z,-3.59
2018-02-09T04:58:48.454Z,-3.73
2018-02-09T04:59:50.964Z,-3.81
2018-02-09T05:00:53.457Z,-3.85
2018-02-09T05:01:55.935Z,-3.79
2018-02-09T05:02:58.424Z,-3.61
2018-02-09T05:04:00.921Z,-3.70
2018-02-09T05:05:03.428Z,-3.72
2018-02-09T05:06:05.924Z,-3.94
2018-02-09T05:07:08.398Z,-3.70
2018-02-09T05:08:10.880Z,-3.74
2018-02-09T05:09:13.369Z,-3.87
2018-02-09T05:10:15.879Z,-3.90
2018-02-09T05:11:18.358Z,-4.05
2018-02-09T05:12:20.834Z,-4.00
2018-02-09T05:13:23.329Z,-4.00
2018-02-09T05:14:25.821Z,-4.02
2018-02-09T05:15:28.318Z,-4.11
2018-02-09T05:16:30.797Z,-4.09
2018-02-09T05:17:33.279Z,-4.15
2018-02-09T05:18:35.772Z,-4.08
2018-02-09T05:19:38.269Z,-3.94
2018-02-09T05:20:40.781Z,-4.01
2018-02-09T05:21:43.316Z,-4.02
2018-02-09T05:22:45.803Z,-4.04
2018-02-09T05:23:48.301Z,-3.95
2018-02-09T05:24:50.791Z,-4.00
2018-02-09T05:25:53.310Z,-4.12
2018-02-09T05:26:55.786Z,-4.08
2018-02-09T05:27:58.276Z,-4.02
2018-02-09T05:29:00.755Z,-4.09
2018-02-09T05:30:03.249Z,-4.24
2018-02-09T05:31:05.758Z,-4.21
2018-02-09T05:32:08.257Z,-4.10
2018-02-09T05:33:10.776Z,-3.91
2018-02-09T05:34:13.263Z,-3.74
2018-02-09T05:35:15.780Z,-3.76
2018-02-09T05:36:18.317Z,-3.89
2018-02-09T05:37:20.788Z,-4.00
2018-02-09T05:38:23.284Z,-4.06
2018-02-09T05:39:25.781Z,-4.14
2018-02-09T05:40:28.274Z,-4.00
2018-02-09T05:41:30.801Z,-3.92
2018-02-09T05:42:33.297Z,-3.75
2018-02-09T05:43:35.779Z,-3.85
2018-02-09T05:44:38.268Z,-3.78
2018-02-09T05:45:40.742Z,-3.88
2018-02-09T05:46:43.246Z,-4.09
2018-02-09T05:47:45.736Z,-4.00
2018-02-09T05:48:48.527Z,-4.04
2018-02-09T05:49:51.027Z,-4.00
2018-02-09T05:50:53.512Z,-4.04
2018-02-09T05:51:56.010Z,-4.04
2018-02-09T05:52:58.491Z,-4.02
2018-02-09T05:54:00.989Z,-4.08
2018-02-09T05:55:03.477Z,-3.99
2018-02-09T05:56:05.959Z,-3.81
2018-02-09T05:57:08.467Z,-3.81
2018-02-09T05:58:10.942Z,-3.82
2018-02-09T05:59:13.415Z,-3.83
2018-02-09T06:00:15.918Z,-3.82
2018-02-09T06:01:18.398Z,-3.92
2018-02-09T06:02:20.930Z,-3.97
2018-02-09T06:03:23.431Z,-4.02
2018-02-09T06:04:25.910Z,-3.93
2018-02-09T06:05:28.400Z,-3.96
2018-02-09T06:06:30.897Z,-4.03
2018-02-09T06:07:33.409Z,-3.96
2018-02-09T06:08:35.904Z,-4.09
2018-02-09T06:09:38.386Z,-4.09
2018-02-09T06:10:40.877Z,-4.17
2018-02-09T06:11:43.351Z,-4.08
2018-02-09T06:12:45.871Z,-4.10
2018-02-09T06:13:48.356Z,-4.11
2018-02-09T06:14:50.839Z,-4.05
2018-02-09T06:15:53.319Z,-4.03
2018-02-09T06:16:55.817Z,-4.09
2018-02-09T06:17:58.337Z,-3.95
2018-02-09T06:19:00.834Z,-3.93
2018-02-09T06:20:03.321Z,-4.04
2018-02-09T06:21:05.802Z,-4.15
2018-02-09T06:22:08.279Z,-4.02
2018-02-09T06:23:10.801Z,-4.05
2018-02-09T06:24:13.419Z,-3.94
2018-02-09T06:25:17.041Z,-4.09
2018-02-09T06:26:19.549Z,-4.08
2018-02-09T06:27:22.033Z,-4.14
2018-02-09T06:28:24.545Z,-4.14
2018-02-09T06:29:27.023Z,-3.81
2018-02-09T06:30:29.498Z,-3.85
2018-02-09T06:31:32.041Z,-3.83
2018-02-09T06:32:34.540Z,-3.80
2018-02-09T06:33:37.095Z,-3.78
2018-02-09T06:34:39.657Z,-3.69
2018-02-09T06:35:42.165Z,-3.76
2018-02-09T06:36:44.669Z,-3.82
2018-02-09T06:37:47.238Z,-3.92
2018-02-09T06:38:49.781Z,-4.03
2018-02-09T06:39:52.279Z,-3.88
2018-02-09T06:40:54.797Z,-3.93
2018-02-09T06:41:57.292Z,-3.85
2018-02-09T06:42:59.924Z,-3.86
2018-02-09T06:44:02.464Z,-3.84
2018-02-09T06:45:04.968Z,-3.41
2018-02-09T06:46:07.439Z,-3.42
2018-02-09T06:47:09.928Z,-3.47
2018-02-09T06:48:12.407Z,-3.62
2018-02-09T06:49:14.913Z,-3.58
2018-02-09T06:50:17.394Z,-3.73
2018-02-09T06:51:19.866Z,-3.71
2018-02-09T06:52:22.341Z,-3.60
2018-02-09T06:53:24.816Z,-3.62
2018-02-09T06:54:27.371Z,-3.65
2018-02-09T06:55:29.861Z,-3.69
2018-02-09T06:56:32.338Z,-3.70
2018-02-09T06:57:34.841Z,-3.70
2018-02-09T06:58:37.319Z,-3.66
2018-02-09T06:59:39.822Z,-3.76
2018-02-09T07:00:42.299Z,-3.64
2018-02-09T07:01:44.887Z,-3.73
2018-02-09T07:02:47.402Z,-3.63
2018-02-09T07:03:49.916Z,-3.72
2018-02-09T07:04:52.463Z,-3.62
2018-02-09T07:05:54.967Z,-3.74
2018-02-09T07:06:57.480Z,-3.93
2018-02-09T07:08:00.009Z,-3.84
2018-02-09T07:09:02.487Z,-3.68
2018-02-09T07:10:04.997Z,-3.68
2018-02-09T07:11:07.470Z,-3.74
2018-02-09T07:12:09.969Z,-3.76
2018-02-09T07:13:12.446Z,-3.86
2018-02-09T07:14:14.937Z,-3.68
2018-02-09T07:15:17.452Z,-3.61
2018-02-09T07:16:19.948Z,-3.66
2018-02-09T07:17:22.470Z,-3.62
2018-02-09T07:18:24.943Z,-3.48
2018-02-09T07:19:27.492Z,-3.63
2018-02-09T07:20:30.051Z,-3.54
2018-02-09T07:21:32.553Z,-3.59
2018-02-09T07:22:35.096Z,-3.55
2018-02-09T07:23:37.588Z,-3.41
2018-02-09T07:24:40.080Z,-3.47
2018-02-09T07:25:42.585Z,-3.57
2018-02-09T07:26:45.114Z,-3.57
2018-02-09T07:27:47.631Z,-3.66
2018-02-09T07:28:50.117Z,-3.54
2018-02-09T07:29:52.609Z,-3.54
2018-02-09T07:30:55.120Z,-3.49
2018-02-09T07:31:57.618Z,-3.42
2018-02-09T07:33:00.135Z,-3.45
2018-02-09T07:34:03.480Z,-3.42
2018-02-09T07:35:05.971Z,-3.42
2018-02-09T07:36:08.533Z,-3.44
2018-02-09T07:37:11.010Z,-3.41
2018-02-09T07:38:13.507Z,-3.45
2018-02-09T07:39:16.046Z,-3.39
2018-02-09T07:40:18.550Z,-3.43
2018-02-09T07:41:21.115Z,-3.37
2018-02-09T07:42:23.656Z,-3.31
2018-02-09T07:43:26.153Z,-3.34
2018-02-09T07:44:28.645Z,-3.38
2018-02-09T07:45:31.120Z,-3.34
2018-02-09T07:46:33.629Z,-3.35
2018-02-09T07:47:36.111Z,-3.35
2018-02-09T07:48:38.598Z,-3.33
2018-02-09T07:49:41.088Z,-3.27
2018-02-09T07:50:43.589Z,-3.21
2018-02-09T07:51:46.118Z,-3.27
2018-02-09T07:52:48.603Z,-3.28
2018-02-09T07:53:51.157Z,-3.30
2018-02-09T07:54:53.663Z,-3.24
2018-02-09T07:55:56.159Z,-3.25
2018-02-09T07:56:58.659Z,-3.15
2018-02-09T07:58:01.296Z,-3.13
2018-02-09T07:59:03.792Z,-2.99
2018-02-09T08:00:06.310Z,-2.78
2018-02-09T08:01:08.813Z,-2.69
2018-02-09T08:02:11.343Z,-2.48
2018-02-09T08:03:13.848Z,-2.34
2018-02-09T08:04:16.375Z,-2.33
2018-02-09T08:05:18.865Z,-2.36
2018-02-09T08:06:21.337Z,-2.15
2018-02-09T08:07:23.836Z,-2.16
2018-02-09T08:08:26.320Z,-2.21
2018-02-09T08:09:28.838Z,-2.20
2018-02-09T08:10:31.328Z,-2.34
2018-02-09T08:11:33.802Z,-2.17
2018-02-09T08:12:36.308Z,-2.19
2018-02-09T08:13:38.801Z,-2.30
2018-02-09T08:14:41.286Z,-2.24
2018-02-09T08:15:43.773Z,-2.23
2018-02-09T08:16:46.365Z,-2.13
2018-02-09T08:17:48.907Z,-2.22
2018-02-09T08:18:51.397Z,-2.41
2018-02-09T08:19:53.903Z,-2.18
2018-02-09T08:20:56.371Z,-2.12
2018-02-09T08:21:58.861Z,-1.95
2018-02-09T08:23:01.366Z,-2.09
2018-02-09T08:24:03.880Z,-2.00
2018-02-09T08:25:06.346Z,-2.18
2018-02-09T08:26:08.829Z,-1.85
2018-02-09T08:27:11.312Z,-1.71
2018-02-09T08:28:13.804Z,-1.60
2018-02-09T08:29:16.288Z,-1.58
2018-02-09T08:30:18.812Z,-1.35
2018-02-09T08:31:21.308Z,-1.57
2018-02-09T08:32:23.784Z,-1.50
2018-02-09T08:33:26.328Z,-1.82
2018-02-09T08:34:28.869Z,-1.81
2018-02-09T08:35:31.349Z,-1.63
2018-02-09T08:36:33.837Z,-1.65
2018-02-09T08:37:36.322Z,-1.60
2018-02-09T08:38:38.828Z,-1.33
2018-02-09T08:39:41.317Z,-1.71
2018-02-09T08:40:43.816Z,-1.63
2018-02-09T08:41:46.301Z,-1.59
2018-02-09T08:42:48.917Z,-1.45
2018-02-09T08:43:51.402Z,-1.41
2018-02-09T08:44:53.885Z,-1.49
2018-02-09T08:45:56.405Z,-1.61
2018-02-09T08:46:58.938Z,-1.48
2018-02-09T08:48:01.425Z,-1.36
2018-02-09T08:49:03.946Z,-1.49
2018-02-09T08:50:06.428Z,-1.29
2018-02-09T08:51:08.899Z,-1.09
2018-02-09T08:52:11.398Z,-1.13
2018-02-09T08:53:13.884Z,-1.18
2018-02-09T08:54:16.393Z,-1.21
2018-02-09T08:55:18.867Z,-1.54
2018-02-09T08:56:21.359Z,-1.37
2018-02-09T08:57:23.869Z,-1.13
2018-02-09T08:58:26.400Z,-0.85
2018-02-09T08:59:29.052Z,-0.96
2018-02-09T09:00:31.576Z,-0.97
2018-02-09T09:01:34.046Z,-0.94
2018-02-09T09:02:36.540Z,-0.64
2018-02-09T09:03:39.025Z,-0.37
2018-02-09T09:04:41.519Z,-0.27
2018-02-09T09:05:44.007Z,-0.03
2018-02-09T09:06:46.493Z,0.37
2018-02-09T09:07:48.977Z,0.50
2018-02-09T09:08:51.482Z,0.80
2018-02-09T09:09:53.997Z,0.64
2018-02-09T09:10:56.496Z,0.53
2018-02-09T09:11:59.039Z,0.28
2018-02-09T09:13:01.529Z,-0.30
2018-02-09T09:14:04.009Z,0.13
2018-02-09T09:15:06.552Z,0.40
2018-02-09T09:16:09.101Z,1.02
2018-02-09T09:17:11.585Z,0.82
2018-02-09T09:18:14.069Z,0.24
2018-02-09T09:19:16.549Z,-0.05
2018-02-09T09:20:19.032Z,0.48
2018-02-09T09:21:21.557Z,0.89
2018-02-09T09:22:24.023Z,1.22
2018-02-09T09:23:26.490Z,0.92
2018-02-09T09:24:28.977Z,1.30
2018-02-09T09:25:31.485Z,1.14
2018-02-09T09:26:33.968Z,0.72
2018-02-09T09:27:36.430Z,0.83
2018-02-09T09:28:38.913Z,0.96
2018-02-09T09:29:41.400Z,0.56
2018-02-09T09:30:43.905Z,0.46
2018-02-09T09:31:46.379Z,0.35
2018-02-09T09:32:48.865Z,1.06
2018-02-09T09:33:51.352Z,0.92
2018-02-09T09:34:53.832Z,1.01
2018-02-09T09:35:56.339Z,1.77
2018-02-09T09:36:58.824Z,1.56
2018-02-09T09:38:01.287Z,1.64
2018-02-09T09:39:03.756Z,1.26
2018-02-09T09:40:06.261Z,1.75
2018-02-09T09:41:08.774Z,1.98
2018-02-09T09:42:11.260Z,1.86
2018-02-09T09:43:13.737Z,1.32
2018-02-09T09:44:16.671Z,1.30
2018-02-09T09:45:19.157Z,1.63
2018-02-09T09:46:21.651Z,1.56
2018-02-09T09:47:24.222Z,1.51
2018-02-09T09:48:26.704Z,1.26
2018-02-09T09:49:29.178Z,0.85
2018-02-09T09:50:31.650Z,1.01
2018-02-09T09:51:34.156Z,1.65
2018-02-09T09:52:36.620Z,1.85
2018-02-09T09:53:39.108Z,1.61
2018-02-09T09:54:41.592Z,1.62
2018-02-09T09:55:44.136Z,2.12
2018-02-09T09:56:46.616Z,2.22
2018-02-09T09:57:49.100Z,1.32
2018-02-09T09:58:51.593Z,0.98
2018-02-09T09:59:54.076Z,1.06
2018-02-09T10:00:56.568Z,1.28
2018-02-09T10:01:59.050Z,1.02
2018-02-09T10:03:01.514Z,0.49
2018-02-09T10:04:04.003Z,0.95
2018-02-09T10:05:06.474Z,0.68
2018-02-09T10:06:08.938Z,0.76
2018-02-09T10:07:11.441Z,0.67
2018-02-09T10:08:13.906Z,0.61
2018-02-09T10:09:16.383Z,0.47
2018-02-09T10:10:18.850Z,0.38
2018-02-09T10:11:21.313Z,0.51
2018-02-09T10:12:23.803Z,0.48
2018-02-09T10:13:26.282Z,0.55
2018-02-09T10:14:28.776Z,0.38
2018-02-09T10:15:31.260Z,0.05
2018-02-09T10:16:33.743Z,0.40
2018-02-09T10:17:36.257Z,0.38
2018-02-09T10:18:38.714Z,0.42
2018-02-09T10:19:41.201Z,0.31
2018-02-09T10:20:43.707Z,0.84
2018-02-09T10:21:46.193Z,1.05
2018-02-09T10:22:48.706Z,1.13
2018-02-09T10:23:51.197Z,1.51
2018-02-09T10:24:53.701Z,1.45
2018-02-09T10:25:56.193Z,1.48
2018-02-09T10:26:58.685Z,1.16
2018-02-09T10:28:01.178Z,1.24
2018-02-09T10:29:03.643Z,0.78
2018-02-09T10:30:06.123Z,0.70
2018-02-09T10:31:08.610Z,0.66
2018-02-09T10:32:11.089Z,0.71
2018-02-09T10:33:13.598Z,0.59
2018-02-09T10:34:16.190Z,0.75
2018-02-09T10:35:18.662Z,1.00
2018-02-09T10:36:21.130Z,1.07
2018-02-09T10:37:23.664Z,0.80
2018-02-09T10:38:26.150Z,1.17
2018-02-09T10:39:28.637Z,1.59
2018-02-09T10:40:31.113Z,1.36
2018-02-09T10:41:33.578Z,1.33
2018-02-09T10:42:36.047Z,1.67
2018-02-09T10:43:38.546Z,1.35
2018-02-09T10:44:41.015Z,1.95
2018-02-09T10:45:43.483Z,2.04
2018-02-09T10:46:45.962Z,2.24
2018-02-09T10:47:48.442Z,2.58
2018-02-09T10:48:50.934Z,2.33
2018-02-09T10:49:53.409Z,3.03
2018-02-09T10:50:55.888Z,3.21
2018-02-09T10:51:58.365Z,2.80
2018-02-09T10:53:00.863Z,3.01
2018-02-09T10:54:03.372Z,3.35
2018-02-09T10:55:05.870Z,3.78
2018-02-09T10:56:08.344Z,3.67
2018-02-09T10:57:10.832Z,4.17
2018-02-09T10:58:13.310Z,4.51
2018-02-09T10:59:15.880Z,3.50
2018-02-09T11:00:19.919Z,3.29
2018-02-09T11:01:28.111Z,3.60
2018-02-09T11:02:30.592Z,3.29
2018-02-09T11:03:33.087Z,2.64
2018-02-09T11:04:35.582Z,2.67
2018-02-09T11:05:38.061Z,2.39
2018-02-09T11:06:40.527Z,2.67
2018-02-09T11:07:43.013Z,2.69
2018-02-09T11:08:45.502Z,2.70
2018-02-09T11:09:48.029Z,2.66
2018-02-09T11:10:50.513Z,2.33
2018-02-09T11:12:01.593Z,2.33
2018-02-09T11:13:09.554Z,2.32
2018-02-09T11:14:12.044Z,2.38
2018-02-09T11:15:14.555Z,2.51
2018-02-09T11:16:17.124Z,2.80
2018-02-09T11:17:19.613Z,2.24
2018-02-09T11:18:22.095Z,2.21
2018-02-09T11:19:24.564Z,2.22
2018-02-09T11:20:27.050Z,2.42
2018-02-09T11:21:29.543Z,2.46
2018-02-09T11:22:32.031Z,3.01
2018-02-09T11:23:34.509Z,2.85
2018-02-09T11:24:37.005Z,2.83
2018-02-09T11:25:39.557Z,2.47
2018-02-09T11:26:42.033Z,1.95
2018-02-09T11:27:44.518Z,2.30
2018-02-09T11:28:47.004Z,2.21
2018-02-09T11:29:49.496Z,1.98
2018-02-09T11:30:51.977Z,1.86
2018-02-09T11:31:54.457Z,2.12
2018-02-09T11:32:56.966Z,2.33
2018-02-09T11:33:59.439Z,2.33
2018-02-09T11:35:01.978Z,2.42
2018-02-09T11:36:04.545Z,2.51
2018-02-09T11:37:07.098Z,2.75
2018-02-09T11:38:09.585Z,2.53
2018-02-09T11:39:12.078Z,3.00
2018-02-09T11:40:14.583Z,3.52
2018-02-09T11:41:17.155Z,2.90
2018-02-09T11:42:19.692Z,3.65
2018-02-09T11:43:22.200Z,3.57
2018-02-09T11:44:24.689Z,4.40
2018-02-09T11:45:27.169Z,4.42
2018-02-09T11:46:29.638Z,4.53
2018-02-09T11:47:32.188Z,5.96
2018-02-09T11:48:34.672Z,5.66
2018-02-09T11:49:37.202Z,4.60
2018-02-09T11:50:39.685Z,4.40
2018-02-09T11:51:42.158Z,4.81
2018-02-09T11:52:44.675Z,4.85
2018-02-09T11:53:47.140Z,4.23
2018-02-09T11:54:49.620Z,3.27
2018-02-09T11:55:52.104Z,3.23
2018-02-09T11:56:54.571Z,3.61
2018-02-09T11:57:57.049Z,3.11
2018-02-09T11:58:59.520Z,3.85
2018-02-09T12:00:01.989Z,4.00
2018-02-09T12:01:04.459Z,3.93
2018-02-09T12:02:07.007Z,4.21
2018-02-09T12:03:09.474Z,3.73
2018-02-09T12:04:11.946Z,3.75
2018-02-09T12:05:14.425Z,3.95
2018-02-09T12:06:16.922Z,4.32
2018-02-09T12:07:19.386Z,4.98
2018-02-09T12:08:21.854Z,4.57
2018-02-09T12:09:24.322Z,4.15
2018-02-09T12:10:26.802Z,3.85
2018-02-09T12:11:29.275Z,4.12
2018-02-09T12:12:31.746Z,5.06
2018-02-09T12:13:34.237Z,6.32
2018-02-09T12:14:36.722Z,5.58
2018-02-09T12:15:39.213Z,4.93
2018-02-09T12:16:41.689Z,4.73
2018-02-09T12:17:44.168Z,4.32
2018-02-09T12:18:46.651Z,3.92
2018-02-09T12:19:49.132Z,3.67
2018-02-09T12:20:51.607Z,2.84
2018-02-09T12:21:54.093Z,2.88
2018-02-09T12:22:56.584Z,2.63
2018-02-09T12:23:59.064Z,2.84
2018-02-09T12:25:01.543Z,3.09
2018-02-09T12:26:04.020Z,3.19
2018-02-09T12:27:06.544Z,3.71
2018-02-09T12:28:08.997Z,3.77
2018-02-09T12:29:11.464Z,4.01
2018-02-09T12:30:13.979Z,3.50
2018-02-09T12:31:16.449Z,3.08
2018-02-09T12:32:18.933Z,3.48
2018-02-09T12:33:21.413Z,3.75
2018-02-09T12:34:23.874Z,4.79
2018-02-09T12:35:26.365Z,4.58
2018-02-09T12:36:28.855Z,3.88
2018-02-09T12:37:31.334Z,3.22
2018-02-09T12:38:33.797Z,3.14
2018-02-09T12:39:36.282Z,3.18
2018-02-09T12:40:38.746Z,2.99
2018-02-09T12:41:41.235Z,3.45
2018-02-09T12:42:43.702Z,3.56
2018-02-09T12:43:46.233Z,3.48
2018-02-09T12:44:48.701Z,3.80
2018-02-09T12:45:51.188Z,3.74
2018-02-09T12:46:53.670Z,4.16
2018-02-09T12:47:56.153Z,4.16
2018-02-09T12:48:58.648Z,4.59
2018-02-09T12:50:01.125Z,4.38
2018-02-09T12:51:03.600Z,4.17
2018-02-09T12:52:06.089Z,4.63
2018-02-09T12:53:08.664Z,4.85
2018-02-09T12:54:11.134Z,6.34
2018-02-09T12:55:13.607Z,7.68
2018-02-09T12:56:16.088Z,7.48
2018-02-09T12:57:18.555Z,8.08
2018-02-09T12:58:21.049Z,9.02
2018-02-09T12:59:23.586Z,8.82
2018-02-09T13:00:26.065Z,8.10
2018-02-09T13:01:28.528Z,6.78
2018-02-09T13:02:31.018Z,7.08
2018-02-09T13:03:33.490Z,6.32
2018-02-09T13:04:35.954Z,5.40
2018-02-09T13:05:38.459Z,5.55
2018-02-09T13:06:40.923Z,6.14
2018-02-09T13:07:43.395Z,6.76
2018-02-09T13:08:45.879Z,6.41
2018-02-09T13:09:48.359Z,6.03
2018-02-09T13:10:50.848Z,6.27
2018-02-09T13:11:53.335Z,5.66
2018-02-09T13:13:11.457Z,5.22
2018-02-09T16:39:07.680Z,0.41
2018-02-09T16:40:10.143Z,0.33
2018-02-09T16:41:12.612Z,0.32
2018-02-09T16:42:15.087Z,0.35
2018-02-09T16:43:17.560Z,0.32
2018-02-09T16:44:20.045Z,0.32
2018-02-09T16:45:22.516Z,0.31
2018-02-09T16:46:24.987Z,0.21
2018-02-09T16:47:27.469Z,0.22
2018-02-09T16:48:29.935Z,0.23
2018-02-09T16:49:32.414Z,0.24
2018-02-09T16:50:34.901Z,0.16
2018-02-09T16:51:37.385Z,0.19
2018-02-09T16:52:39.863Z,0.19
2018-02-09T16:53:42.429Z,0.17
2018-02-09T16:54:44.925Z,0.21
2018-02-09T16:55:47.405Z,0.20
2018-02-09T16:56:49.898Z,0.20
2018-02-09T16:57:52.380Z,0.30
2018-02-09T16:58:54.859Z,0.28
2018-02-09T16:59:57.329Z,0.30
2018-02-09T17:00:59.813Z,0.24
2018-02-09T17:02:02.324Z,0.17